Time;durP1;ratioP1;P1;durP2;ratioP2;P2;SDS_P1;SDS_P2;PMS_P1;PMS_P2;Temp;Humidity;BMP_temperature;BMP_pressure;BME280_temperature;BME280_humidity;BME280_pressure;Samples;Min_cycle;Max_cycle;Signal;HPM_P1;HPM_P2
2022/04/15 00:00:26;;;;;;;13.75;6.00;;;6.90;99.90;;;;;;5098461;28;20044;-82
2022/04/15 00:02:52;;;;;;;13.00;6.65;;;6.80;99.90;;;;;;5105639;27;20043;-82
2022/04/15 00:05:37;;;;;;;12.52;6.20;;;6.90;99.90;;;;;;5115079;28;20107;-83
2022/04/15 00:08:13;;;;;;;13.27;6.35;;;6.80;99.90;;;;;;5096387;28;20043;-83
2022/04/15 00:10:41;;;;;;;9.48;7.22;;;6.80;99.90;;;;;;5100587;28;20076;-81
2022/04/15 00:13:11;;;;;;;9.48;6.32;;;6.80;99.90;;;;;;5114633;28;20044;-83
2022/04/15 00:15:38;;;;;;;12.25;6.82;;;6.70;99.90;;;;;;5109576;27;20087;-83
2022/04/15 00:18:04;;;;;;;15.05;7.10;;;6.60;99.90;;;;;;5102124;28;20040;-83
2022/04/15 00:20:29;;;;;;;15.15;7.03;;;6.60;99.90;;;;;;5093013;28;20512;-83
2022/04/15 00:22:58;;;;;;;10.40;7.00;;;6.60;99.90;;;;;;5122004;28;20040;-83
2022/04/15 00:25:24;;;;;;;15.80;7.05;;;6.70;99.90;;;;;;5117106;28;20036;-82
2022/04/15 00:27:50;;;;;;;10.35;6.78;;;6.60;99.90;;;;;;5132778;28;20043;-83
2022/04/15 00:30:15;;;;;;;9.65;6.53;;;6.70;99.90;;;;;;5109800;28;20413;-84
2022/04/15 00:32:41;;;;;;;12.40;7.45;;;6.70;99.90;;;;;;5123119;28;20044;-81
2022/04/15 00:35:08;;;;;;;7.68;6.55;;;6.60;99.90;;;;;;5108833;28;20096;-81
2022/04/15 00:37:34;;;;;;;12.18;6.30;;;6.70;99.90;;;;;;5109070;28;20063;-83
2022/04/15 00:40:02;;;;;;;9.13;6.90;;;6.70;99.90;;;;;;5145075;27;20016;-84
2022/04/15 00:42:28;;;;;;;10.82;6.70;;;6.70;99.90;;;;;;5117421;27;20452;-83
2022/04/15 00:44:55;;;;;;;13.98;8.15;;;6.60;99.90;;;;;;5115379;28;20047;-83
2022/04/15 00:47:50;;;;;;;12.80;6.53;;;6.70;99.90;;;;;;5126333;27;20047;-84
2022/04/15 00:50:17;;;;;;;10.13;7.07;;;6.70;99.90;;;;;;5090547;28;20044;-84
2022/04/15 00:52:46;;;;;;;9.32;6.53;;;6.80;99.90;;;;;;5105219;28;20052;-84
2022/04/15 00:55:13;;;;;;;12.18;7.35;;;6.80;99.90;;;;;;5099431;28;20125;-84
2022/04/15 00:57:44;;;;;;;17.08;6.72;;;6.80;99.90;;;;;;5102804;27;20051;-81
2022/04/15 01:00:13;;;;;;;16.65;7.75;;;6.80;99.90;;;;;;5102824;27;20043;-84
2022/04/15 01:02:39;;;;;;;9.48;6.50;;;6.90;99.90;;;;;;5083220;28;20131;-81
2022/04/15 01:05:09;;;;;;;8.25;5.97;;;7.00;99.90;;;;;;5109146;27;20087;-85
2022/04/15 01:07:39;;;;;;;13.77;8.32;;;7.00;99.90;;;;;;5103398;27;20135;-82
2022/04/15 01:10:10;;;;;;;15.63;7.60;;;7.00;99.90;;;;;;5116364;27;20043;-85
2022/04/15 01:12:38;;;;;;;13.75;6.93;;;7.10;99.90;;;;;;5117338;27;20050;-86
2022/04/15 01:15:07;;;;;;;17.00;6.47;;;7.20;99.90;;;;;;5132322;27;20032;-86
2022/04/15 01:17:35;;;;;;;12.98;7.28;;;7.20;99.90;;;;;;5119030;28;20069;-83
2022/04/15 01:20:03;;;;;;;19.75;6.90;;;7.20;99.90;;;;;;5119783;27;20071;-84
2022/04/15 01:22:41;;;;;;;11.02;6.50;;;7.20;99.90;;;;;;5109018;27;20036;-85
2022/04/15 01:25:08;;;;;;;15.38;5.55;;;7.40;99.90;;;;;;5121156;27;20051;-84
2022/04/15 01:27:39;;;;;;;11.50;5.72;;;7.30;99.90;;;;;;5107430;28;20580;-84
2022/04/15 01:30:09;;;;;;;14.25;7.25;;;7.40;99.90;;;;;;5093856;28;20039;-83
2022/04/15 01:32:34;;;;;;;;;;;7.40;99.90;;;;;;5112794;27;20131;-84
2022/04/15 01:35:00;;;;;;;11.40;5.70;;;7.40;99.90;;;;;;5100767;27;19920;-82
2022/04/15 01:37:28;;;;;;;15.15;6.35;;;7.40;99.90;;;;;;5084692;28;20122;-83
2022/04/15 01:39:53;;;;;;;14.40;7.03;;;7.50;99.90;;;;;;5093305;28;20036;-83
2022/04/15 01:42:19;;;;;;;6.68;5.22;;;7.50;99.90;;;;;;5104301;27;20109;-82
2022/04/15 01:44:44;;;;;;;14.30;7.32;;;7.50;99.90;;;;;;5110657;27;20050;-81
2022/04/15 01:47:11;;;;;;;15.60;5.57;;;7.60;99.90;;;;;;5103586;27;20086;-83
2022/04/15 01:49:37;;;;;;;9.48;6.47;;;7.60;99.90;;;;;;5100434;27;20067;-82
2022/04/15 01:52:04;;;;;;;13.80;6.15;;;7.60;99.90;;;;;;5119990;27;20074;-83
2022/04/15 01:54:30;;;;;;;7.85;5.68;;;7.60;99.90;;;;;;5123439;27;20039;-82
2022/04/15 01:56:57;;;;;;;12.48;6.07;;;7.60;99.90;;;;;;5133610;27;20039;-83
2022/04/15 01:59:24;;;;;;;8.32;5.57;;;7.70;99.90;;;;;;5121037;27;20040;-84
2022/04/15 02:01:54;;;;;;;11.88;7.70;;;7.70;99.90;;;;;;5118266;27;20038;-85
2022/04/15 02:04:21;;;;;;;16.50;6.68;;;7.80;99.90;;;;;;5105911;28;20032;-83
2022/04/15 02:06:47;;;;;;;18.90;7.03;;;7.70;99.90;;;;;;5110334;28;20070;-84
2022/04/15 02:09:13;;;;;;;11.68;7.05;;;7.80;99.90;;;;;;5091981;27;20040;-84
2022/04/15 02:11:38;;;;;;;16.15;7.53;;;7.90;99.90;;;;;;5113842;27;20431;-81
2022/04/15 02:14:04;;;;;;;10.35;6.20;;;7.80;99.90;;;;;;5105487;27;20059;-85
2022/04/15 02:16:29;;;;;;;9.45;6.70;;;7.90;99.90;;;;;;5111053;27;20100;-86
2022/04/15 02:18:55;;;;;;;16.80;8.60;;;7.90;99.90;;;;;;5101510;27;20039;-84
2022/04/15 02:21:20;;;;;;;15.63;8.55;;;8.00;99.90;;;;;;5119357;27;20130;-84
2022/04/15 02:23:46;;;;;;;9.98;6.68;;;8.00;99.90;;;;;;5107863;28;20409;-84
2022/04/15 02:26:11;;;;;;;12.63;5.85;;;8.00;99.90;;;;;;5102873;27;20043;-84
2022/04/15 02:28:37;;;;;;;16.60;7.72;;;8.00;99.90;;;;;;5106842;27;20043;-84
2022/04/15 02:31:03;;;;;;;11.35;7.60;;;8.10;99.90;;;;;;5109849;27;20570;-83
2022/04/15 02:33:28;;;;;;;18.73;8.07;;;8.10;99.90;;;;;;5110810;27;20039;-84
2022/04/15 02:35:55;;;;;;;9.90;6.03;;;8.10;99.90;;;;;;5097314;27;20164;-83
2022/04/15 02:38:20;;;;;;;7.60;5.97;;;8.10;99.90;;;;;;5099223;28;20047;-83
2022/04/15 02:40:46;;;;;;;10.82;6.45;;;8.20;99.90;;;;;;5104750;27;20528;-82
2022/04/15 02:43:12;;;;;;;8.65;6.07;;;8.20;99.90;;;;;;5114501;27;20553;-82
2022/04/15 02:45:38;;;;;;;11.77;6.05;;;8.20;99.90;;;;;;5101015;27;20133;-81
2022/04/15 02:48:04;;;;;;;11.77;6.47;;;8.20;99.90;;;;;;5127853;27;20473;-84
2022/04/15 02:50:30;;;;;;;15.40;5.90;;;8.10;99.90;;;;;;5099238;27;20050;-83
2022/04/15 02:52:55;;;;;;;20.35;7.68;;;8.20;99.90;;;;;;5102696;27;20039;-83
2022/04/15 02:55:21;;;;;;;14.18;6.00;;;8.20;99.90;;;;;;5108771;27;20044;-84
2022/04/15 02:57:47;;;;;;;9.20;5.57;;;8.20;99.90;;;;;;5107848;27;20050;-83
2022/04/15 03:00:14;;;;;;;18.23;6.85;;;8.30;99.90;;;;;;5107480;27;20119;-83
2022/04/15 03:02:39;;;;;;;10.23;6.38;;;8.20;99.90;;;;;;5127788;27;20047;-84
2022/04/15 03:05:09;;;;;;;7.95;5.78;;;8.20;99.90;;;;;;5134165;27;20027;-84
2022/04/15 03:07:37;;;;;;;8.43;6.22;;;8.30;99.90;;;;;;5122169;27;20086;-84
2022/04/15 03:10:05;;;;;;;10.77;5.15;;;8.30;99.90;;;;;;5100739;27;20036;-85
2022/04/15 03:12:38;;;;;;;14.73;6.03;;;8.30;99.90;;;;;;5122688;27;20051;-84
2022/04/15 03:15:06;;;;;;;12.52;6.90;;;8.30;99.90;;;;;;5097132;27;20469;-84
2022/04/15 03:17:33;;;;;;;16.20;7.38;;;8.30;99.90;;;;;;5108954;27;20035;-82
2022/04/15 03:20:02;;;;;;;11.57;6.07;;;8.30;99.90;;;;;;5114946;27;20039;-84
2022/04/15 03:22:29;;;;;;;10.20;6.22;;;8.30;99.90;;;;;;5120539;27;20062;-83
2022/04/15 03:24:54;;;;;;;17.58;5.97;;;8.30;99.90;;;;;;5090792;27;20458;-82
2022/04/15 03:27:20;;;;;;;9.38;5.63;;;8.30;99.90;;;;;;5130088;27;20055;-81
2022/04/15 03:29:46;;;;;;;11.02;5.32;;;8.40;99.90;;;;;;5122325;27;20390;-82
2022/04/15 03:32:11;;;;;;;12.48;5.38;;;8.30;99.90;;;;;;5080273;27;20066;-82
2022/04/15 03:34:37;;;;;;;7.38;4.70;;;8.30;99.90;;;;;;5107840;28;20039;-83
2022/04/15 03:37:04;;;;;;;7.13;5.53;;;8.30;99.90;;;;;;5121494;27;20043;-81
2022/04/15 03:39:29;;;;;;;11.02;6.97;;;8.30;99.90;;;;;;5130385;27;20409;-83
2022/04/15 03:41:55;;;;;;;9.43;5.50;;;8.30;99.90;;;;;;5110422;27;20039;-84
2022/04/15 03:44:21;;;;;;;14.35;7.13;;;8.30;99.90;;;;;;5109672;27;20055;-82
2022/04/15 03:46:46;;;;;;;9.38;6.22;;;8.30;99.90;;;;;;5122590;27;20039;-83
2022/04/15 03:49:12;;;;;;;10.10;5.97;;;8.40;99.90;;;;;;5120452;27;20742;-83
2022/04/15 03:51:37;;;;;;;9.15;6.75;;;8.40;99.90;;;;;;5110321;28;20040;-83
2022/04/15 03:54:03;;;;;;;17.58;8.90;;;8.40;99.90;;;;;;5112165;27;20036;-83
2022/04/15 03:56:29;;;;;;;9.93;6.90;;;8.40;99.90;;;;;;5104832;28;20089;-84
2022/04/15 03:58:54;;;;;;;10.75;6.10;;;8.40;99.90;;;;;;5103665;28;20039;-84
2022/04/15 04:01:20;;;;;;;18.05;8.77;;;8.40;99.90;;;;;;5094212;28;20111;-82
2022/04/15 04:03:46;;;;;;;15.35;9.45;;;8.30;99.90;;;;;;5108302;28;20104;-84
2022/04/15 04:06:11;;;;;;;19.58;10.25;;;8.30;99.90;;;;;;5107591;28;20039;-84
2022/04/15 04:08:37;;;;;;;20.58;12.95;;;8.30;99.90;;;;;;5117865;28;20092;-83
2022/04/15 04:11:03;;;;;;;19.92;15.25;;;8.30;99.90;;;;;;5107541;27;20066;-84
2022/04/15 04:13:29;;;;;;;23.02;15.80;;;8.20;99.90;;;;;;5100803;27;20067;-82
2022/04/15 04:15:55;;;;;;;14.23;12.75;;;8.20;99.90;;;;;;5088095;28;20048;-84
2022/04/15 04:18:21;;;;;;;18.17;13.10;;;8.10;99.90;;;;;;5072272;28;20558;-81
2022/04/15 04:20:50;;;;;;;13.60;10.50;;;8.10;99.90;;;;;;5119163;28;20073;-82
2022/04/15 04:23:16;;;;;;;10.93;9.50;;;8.00;99.90;;;;;;5116114;27;20592;-82
2022/04/15 04:25:42;;;;;;;13.75;9.15;;;7.90;99.90;;;;;;5109523;28;20051;-82
2022/04/15 04:28:07;;;;;;;8.57;7.22;;;7.90;99.90;;;;;;5097921;28;20054;-83
2022/04/15 04:30:33;;;;;;;10.65;7.57;;;7.90;99.90;;;;;;5108255;28;20031;-82
2022/04/15 04:32:59;;;;;;;11.93;8.32;;;7.80;99.90;;;;;;5103559;28;20075;-82
2022/04/15 04:35:25;;;;;;;8.55;5.97;;;7.70;99.90;;;;;;5092277;28;20394;-83
2022/04/15 04:37:51;;;;;;;9.80;7.35;;;7.80;99.90;;;;;;5110030;27;20051;-84
2022/04/15 04:40:18;;;;;;;8.70;7.53;;;7.80;99.90;;;;;;5100815;28;20126;-83
2022/04/15 04:42:45;;;;;;;13.82;8.25;;;7.70;99.90;;;;;;5129116;27;20035;-86
2022/04/15 04:45:10;;;;;;;8.77;6.90;;;7.70;99.90;;;;;;5119476;27;20040;-83
2022/04/15 04:47:39;;;;;;;9.18;8.10;;;7.70;99.90;;;;;;5104191;27;20050;-82
2022/04/15 04:50:08;;;;;;;10.90;6.97;;;7.70;99.90;;;;;;5113195;27;20114;-84
2022/04/15 04:52:35;;;;;;;8.10;5.85;;;7.70;99.90;;;;;;5120691;27;20044;-84
2022/04/15 04:55:00;;;;;;;9.60;7.35;;;7.70;99.90;;;;;;5096007;27;20043;-83
2022/04/15 04:57:26;;;;;;;8.48;6.60;;;7.70;99.90;;;;;;5124829;27;20135;-84
2022/04/15 04:59:51;;;;;;;10.32;7.53;;;7.70;99.90;;;;;;5116791;27;20489;-84
2022/04/15 05:02:17;;;;;;;8.75;6.30;;;7.70;99.90;;;;;;5108114;27;20032;-83
2022/04/15 05:04:43;;;;;;;11.90;7.20;;;7.70;99.90;;;;;;5089278;28;20040;-84
2022/04/15 05:07:08;;;;;;;9.18;6.80;;;7.70;99.90;;;;;;5110207;27;20513;-78
2022/04/15 05:09:34;;;;;;;9.82;6.28;;;7.70;99.90;;;;;;5122757;27;20043;-84
2022/04/15 05:12:00;;;;;;;7.50;6.35;;;7.70;99.90;;;;;;5112061;27;20101;-83
2022/04/15 05:14:26;;;;;;;8.60;5.78;;;7.80;99.90;;;;;;5115952;27;20097;-83
2022/04/15 05:16:51;;;;;;;7.50;6.22;;;7.80;99.90;;;;;;5110995;27;20074;-83
2022/04/15 05:19:17;;;;;;;7.03;5.72;;;7.70;99.90;;;;;;5119187;27;20032;-82
2022/04/15 05:21:42;;;;;;;6.97;5.85;;;7.80;99.90;;;;;;5117219;27;20085;-83
2022/04/15 05:24:09;;;;;;;7.60;4.68;;;7.70;99.90;;;;;;5117573;27;20150;-84
2022/04/15 05:26:36;;;;;;;3.53;2.53;;;7.70;99.90;;;;;;5116095;27;20080;-83
2022/04/15 05:29:02;;;;;;;3.63;3.28;;;7.70;99.90;;;;;;5123014;27;20046;-82
2022/04/15 05:31:28;;;;;;;5.95;4.22;;;7.70;99.90;;;;;;5119457;28;20059;-83
2022/04/15 05:33:53;;;;;;;3.90;2.85;;;7.70;99.90;;;;;;5134811;27;20035;-82
2022/04/15 05:36:19;;;;;;;6.40;3.35;;;7.70;99.90;;;;;;5131398;27;20046;-83
2022/04/15 05:38:44;;;;;;;6.13;3.03;;;7.70;99.90;;;;;;5128460;27;20040;-82
2022/04/15 05:41:10;;;;;;;4.38;3.28;;;7.60;99.90;;;;;;5121382;27;20037;-84
2022/04/15 05:43:37;;;;;;;5.20;4.70;;;7.70;99.90;;;;;;5100792;28;20042;-83
2022/04/15 05:46:03;;;;;;;4.63;3.45;;;7.60;99.90;;;;;;5138107;27;20030;-83
2022/04/15 05:48:28;;;;;;;4.32;2.78;;;7.60;99.90;;;;;;5139485;27;20069;-82
2022/04/15 05:50:54;;;;;;;3.05;2.60;;;7.70;99.90;;;;;;5119912;27;20490;-83
2022/04/15 05:53:19;;;;;;;3.00;2.50;;;7.60;99.90;;;;;;5112338;28;20127;-83
2022/04/15 05:55:45;;;;;;;7.13;2.55;;;7.50;99.90;;;;;;5120170;27;20516;-83
2022/04/15 05:58:11;;;;;;;3.17;2.83;;;7.50;99.90;;;;;;5111827;27;20067;-81
2022/04/15 06:00:37;;;;;;;5.68;3.80;;;7.60;99.90;;;;;;5115283;27;20471;-83
2022/04/15 06:03:03;;;;;;;3.08;2.78;;;7.60;99.90;;;;;;5111295;27;20043;-83
2022/04/15 06:05:29;;;;;;;3.65;3.00;;;7.50;99.90;;;;;;5098654;27;20759;-82
2022/04/15 06:07:54;;;;;;;2.55;2.35;;;7.50;99.90;;;;;;5100821;27;20107;-82
2022/04/15 06:10:20;;;;;;;2.35;2.15;;;7.60;99.90;;;;;;5095496;27;20044;-83
2022/04/15 06:13:00;;;;;;;2.80;2.45;;;7.50;99.90;;;;;;5096792;28;20115;-84
2022/04/15 06:15:30;;;;;;;2.80;2.60;;;7.50;99.90;;;;;;5093815;27;20066;-84
2022/04/15 06:17:57;;;;;;;4.55;3.22;;;7.60;99.90;;;;;;5097753;27;20405;-84
2022/04/15 06:20:23;;;;;;;5.20;2.72;;;7.60;99.90;;;;;;5074300;28;20131;-84
2022/04/15 06:22:49;;;;;;;5.40;2.47;;;7.50;99.90;;;;;;5095590;28;20123;-84
2022/04/15 06:25:14;;;;;;;3.30;2.97;;;7.60;99.90;;;;;;5089969;28;20139;-83
2022/04/15 06:27:40;;;;;;;3.03;2.70;;;7.60;99.90;;;;;;5111633;27;20040;-85
2022/04/15 06:30:07;;;;;;;3.55;2.45;;;7.50;99.90;;;;;;5112442;28;20051;-84
2022/04/15 06:32:34;;;;;;;11.32;4.03;;;7.50;99.90;;;;;;5112739;27;20070;-83
2022/04/15 06:34:59;;;;;;;3.83;2.90;;;7.50;99.90;;;;;;5112696;27;20079;-87
2022/04/15 06:37:25;;;;;;;4.68;3.45;;;7.50;99.90;;;;;;5101720;27;20066;-85
2022/04/15 06:39:51;;;;;;;5.72;4.32;;;7.50;99.90;;;;;;5119342;27;20043;-84
2022/04/15 06:42:28;;;;;;;8.10;3.53;;;7.40;99.90;;;;;;5110279;28;20459;-84
2022/04/15 06:44:54;;;;;;;6.93;4.35;;;7.50;99.90;;;;;;5105395;28;20386;-85
2022/04/15 06:47:20;;;;;;;5.15;4.65;;;7.40;99.90;;;;;;5099492;27;20059;-84
2022/04/15 06:49:47;;;;;;;5.95;4.82;;;7.50;99.90;;;;;;5099284;28;20107;-84
2022/04/15 06:52:14;;;;;;;8.02;5.55;;;7.40;99.90;;;;;;5106860;28;20046;-81
2022/04/15 06:54:40;;;;;;;9.02;6.65;;;7.50;99.90;;;;;;5092013;27;20040;-81
2022/04/15 06:57:06;;;;;;;9.20;6.30;;;7.50;99.90;;;;;;5098876;28;20039;-81
2022/04/15 06:59:32;;;;;;;8.20;6.53;;;7.60;99.90;;;;;;5102937;27;20112;-79
2022/04/15 07:01:59;;;;;;;8.00;7.03;;;7.60;99.90;;;;;;5110062;27;20073;-82
2022/04/15 07:04:25;;;;;;;11.27;7.97;;;7.60;99.90;;;;;;5094075;28;20051;-82
2022/04/15 07:06:51;;;;;;;9.50;8.15;;;7.70;99.90;;;;;;5082420;28;20556;-82
2022/04/15 07:09:17;;;;;;;19.25;9.85;;;7.80;99.90;;;;;;5127869;27;20066;-83
2022/04/15 07:11:42;;;;;;;13.50;9.00;;;7.80;99.90;;;;;;5091905;27;20551;-82
2022/04/15 07:14:08;;;;;;;10.52;9.00;;;7.80;99.90;;;;;;5103184;28;20039;-81
2022/04/15 07:16:37;;;;;;;9.85;8.48;;;7.80;99.90;;;;;;5087978;28;20488;-81
2022/04/15 07:19:07;;;;;;;9.27;8.02;;;7.90;99.90;;;;;;5098943;27;20047;-83
2022/04/15 07:21:39;;;;;;;12.70;8.75;;;7.90;99.90;;;;;;5103555;27;20035;-83
2022/04/15 07:24:06;;;;;;;10.90;8.73;;;8.00;99.90;;;;;;5108388;28;20050;-82
2022/04/15 07:26:32;;;;;;;13.20;9.85;;;7.90;99.90;;;;;;5100255;27;20058;-80
2022/04/15 07:28:58;;;;;;;13.15;9.93;;;8.00;99.90;;;;;;5100839;28;20318;-76
2022/04/15 07:31:24;;;;;;;13.02;9.75;;;8.00;99.90;;;;;;5089017;28;20487;-81
2022/04/15 07:33:51;;;;;;;12.52;9.90;;;8.00;99.90;;;;;;5097143;28;20082;-81
2022/04/15 07:39:06;;;;;;;14.15;10.98;;;8.00;99.90;;;;;;5103867;27;20104;-77
2022/04/15 07:41:33;;;;;;;14.55;10.77;;;8.10;99.90;;;;;;5089181;28;20071;-84
2022/04/15 07:43:58;;;;;;;11.73;8.77;;;8.30;99.90;;;;;;5101499;28;20039;-82
2022/04/15 07:46:24;;;;;;;21.70;12.52;;;8.30;99.90;;;;;;5093530;28;20035;-83
2022/04/15 07:48:50;;;;;;;13.20;10.73;;;8.60;99.90;;;;;;5102960;28;20040;-84
2022/04/15 07:51:15;;;;;;;15.32;9.90;;;9.00;99.90;;;;;;5077805;28;20127;-84
2022/04/15 07:53:41;;;;;;;15.88;10.52;;;9.10;99.90;;;;;;5096413;28;20041;-86
2022/04/15 07:56:06;;;;;;;14.85;9.10;;;9.30;99.90;;;;;;5118477;27;20043;-87
2022/04/15 07:58:32;;;;;;;19.52;10.35;;;9.50;99.90;;;;;;5108966;28;20092;-87
2022/04/15 08:01:00;;;;;;;14.27;9.80;;;9.70;99.90;;;;;;5103043;28;20036;-82
2022/04/15 08:03:27;;;;;;;15.02;7.32;;;9.50;99.90;;;;;;5097876;28;20490;-85
2022/04/15 08:05:54;;;;;;;14.32;8.70;;;9.50;99.90;;;;;;5097141;28;20036;-86
2022/04/15 08:08:20;;;;;;;14.35;10.05;;;9.40;99.90;;;;;;5098771;28;20134;-85
2022/04/15 08:10:47;;;;;;;14.65;8.45;;;9.20;99.90;;;;;;5094736;28;20440;-85
2022/04/15 08:13:13;;;;;;;14.75;9.23;;;9.30;99.90;;;;;;5112197;27;20036;-84
2022/04/15 08:15:38;;;;;;;17.00;9.13;;;9.20;99.90;;;;;;5085664;27;20519;-82
2022/04/15 08:18:05;;;;;;;13.40;8.65;;;8.90;99.90;;;;;;5088101;28;20051;-84
2022/04/15 08:20:31;;;;;;;13.70;8.40;;;9.10;99.90;;;;;;5096086;28;20039;-86
2022/04/15 08:22:56;;;;;;;16.00;8.18;;;9.10;99.90;;;;;;5112429;28;20046;-84
2022/04/15 08:25:22;;;;;;;11.98;7.20;;;9.30;99.90;;;;;;5118232;27;20040;-85
2022/04/15 08:27:48;;;;;;;15.52;7.35;;;9.30;99.90;;;;;;5098179;28;20048;-85
2022/04/15 08:30:13;;;;;;;11.15;7.32;;;9.40;99.90;;;;;;5113589;28;20036;-85
2022/04/15 08:32:39;;;;;;;15.80;7.25;;;9.20;99.90;;;;;;5098765;28;20486;-87
2022/04/15 08:35:06;;;;;;;11.32;7.38;;;9.10;99.90;;;;;;5113020;28;20062;-86
2022/04/15 08:37:36;;;;;;;13.73;7.70;;;9.10;99.90;;;;;;5099973;27;20139;-86
2022/04/15 08:40:01;;;;;;;18.15;7.82;;;9.00;99.90;;;;;;5120882;27;20050;-86
2022/04/15 08:42:27;;;;;;;21.55;8.50;;;9.10;99.90;;;;;;5100615;28;20088;-87
2022/04/15 08:44:53;;;;;;;11.98;6.20;;;9.10;99.90;;;;;;5101176;27;20047;-86
2022/04/15 08:47:20;;;;;;;10.93;5.63;;;9.30;99.90;;;;;;5109233;27;20043;-87
2022/04/15 08:49:47;;;;;;;10.15;5.03;;;9.30;99.90;;;;;;5116396;27;20490;-86
2022/04/15 08:52:17;;;;;;;7.88;5.43;;;9.40;99.90;;;;;;5112884;27;20083;-84
2022/04/15 08:54:44;;;;;;;;;;;9.80;99.90;;;;;;5118736;27;20046;-86
2022/04/15 08:57:10;;;;;;;8.48;5.30;;;10.00;99.90;;;;;;5112706;27;19919;-89
2022/04/15 08:59:35;;;;;;;8.65;6.30;;;10.30;99.90;;;;;;5105925;27;20490;-87
2022/04/15 09:02:01;;;;;;;7.07;4.28;;;10.10;99.90;;;;;;5080975;27;20613;-87
2022/04/15 09:04:27;;;;;;;8.50;5.28;;;10.00;99.90;;;;;;5105459;27;20039;-87
2022/04/15 09:06:59;;;;;;;15.85;5.97;;;9.60;99.90;;;;;;5105096;27;20036;-86
2022/04/15 09:09:32;;;;;;;8.13;4.68;;;9.70;99.90;;;;;;5102572;27;20104;-84
2022/04/15 09:12:05;;;;;;;6.35;4.18;;;9.60;99.90;;;;;;5113307;27;20073;-87
2022/04/15 09:14:30;;;;;;;5.15;3.55;;;9.40;99.90;;;;;;5097304;28;20096;-80
2022/04/15 09:16:56;;;;;;;7.32;4.75;;;9.70;99.90;;;;;;5111211;27;20028;-84
2022/04/15 09:19:22;;;;;;;7.72;4.30;;;10.10;99.90;;;;;;5114025;27;20112;-86
2022/04/15 09:21:56;;;;;;;5.50;3.83;;;10.30;99.90;;;;;;5092683;28;20412;-88
2022/04/15 09:24:34;;;;;;;9.40;4.47;;;10.60;99.90;;;;;;5097499;28;20044;-81
2022/04/15 09:27:06;;;;;;;9.57;4.63;;;10.60;99.90;;;;;;5097905;27;20054;-85
2022/04/15 09:29:34;;;;;;;8.65;4.80;;;10.50;99.90;;;;;;5113859;27;20116;-86
2022/04/15 09:32:17;;;;;;;9.93;4.78;;;11.30;99.90;;;;;;5106166;27;20088;-86
2022/04/15 09:35:14;;;;;;;7.05;4.20;;;11.10;99.90;;;;;;5112276;28;20047;-88
2022/04/15 09:37:43;;;;;;;9.07;4.13;;;10.80;99.90;;;;;;5112042;27;20465;-85
2022/04/15 09:40:18;;;;;;;11.35;4.43;;;11.30;99.90;;;;;;5092241;28;20501;-82
2022/04/15 09:42:54;;;;;;;7.28;4.53;;;11.40;99.90;;;;;;5110539;27;20492;-84
2022/04/15 09:45:30;;;;;;;7.35;4.72;;;10.60;99.90;;;;;;5115047;27;20138;-86
2022/04/15 09:48:01;;;;;;;6.13;4.32;;;10.50;99.90;;;;;;5107759;28;20130;-84
2022/04/15 09:50:36;;;;;;;8.77;4.65;;;10.30;99.90;;;;;;5114878;27;20079;-86
2022/04/15 09:53:14;;;;;;;11.48;6.13;;;10.30;99.90;;;;;;5092637;28;20509;-84
2022/04/15 09:55:41;;;;;;;5.43;4.18;;;10.20;99.90;;;;;;5099896;28;20036;-84
2022/04/15 09:58:15;;;;;;;11.80;5.43;;;10.30;99.90;;;;;;5098306;27;20031;-86
2022/04/15 10:00:43;;;;;;;6.00;4.30;;;10.40;99.90;;;;;;5091361;28;20046;-85
2022/04/15 10:03:12;;;;;;;6.68;4.68;;;10.80;99.90;;;;;;5105487;27;20394;-84
2022/04/15 10:05:38;;;;;;;8.45;4.63;;;11.10;99.90;;;;;;5111355;28;20619;-78
2022/04/15 10:08:05;;;;;;;4.70;3.05;;;11.40;99.90;;;;;;5090289;28;20039;-73
2022/04/15 10:10:31;;;;;;;6.88;3.40;;;11.00;99.90;;;;;;5108483;28;20040;-78
2022/04/15 10:12:59;;;;;;;6.60;4.22;;;11.40;99.90;;;;;;5094595;27;20097;-75
2022/04/15 10:15:25;;;;;;;12.63;5.53;;;11.40;99.90;;;;;;5072791;28;20071;-75
2022/04/15 10:17:52;;;;;;;11.70;5.75;;;11.10;99.90;;;;;;5093302;28;20501;-74
2022/04/15 10:20:17;;;;;;;7.40;4.75;;;10.90;99.90;;;;;;5104617;27;20036;-75
2022/04/15 10:22:44;;;;;;;6.88;4.38;;;11.40;99.90;;;;;;5108405;28;20058;-74
2022/04/15 10:25:10;;;;;;;24.73;5.22;;;11.40;99.90;;;;;;5104328;27;20443;-76
2022/04/15 10:27:35;;;;;;;9.52;5.30;;;11.20;99.90;;;;;;5100734;27;20130;-75
2022/04/15 10:30:21;;;;;;;7.13;5.10;;;11.00;99.90;;;;;;5107848;28;20047;-73
2022/04/15 10:32:51;;;;;;;7.70;5.35;;;11.00;99.90;;;;;;5091831;28;20078;-74
2022/04/15 10:35:22;;;;;;;9.10;5.25;;;11.10;99.90;;;;;;5093446;28;20035;-74
2022/04/15 10:37:55;;;;;;;8.43;4.82;;;11.20;99.90;;;;;;5106733;28;20051;-77
2022/04/15 10:40:23;;;;;;;13.88;5.70;;;10.90;99.90;;;;;;5091351;28;20040;-84
2022/04/15 10:42:48;;;;;;;10.65;6.30;;;11.10;99.90;;;;;;5092220;28;20050;-87
2022/04/15 10:45:34;;;;;;;8.35;6.43;;;11.70;99.90;;;;;;5119674;27;20056;-82
2022/04/15 10:48:01;;;;;;;7.80;4.82;;;11.30;99.90;;;;;;5116190;28;20087;-89
2022/04/15 10:50:33;;;;;;;9.00;4.55;;;11.00;99.90;;;;;;5128734;28;20552;-86
2022/04/15 10:53:27;;;;;;;9.48;5.70;;;11.00;99.90;;;;;;5090001;28;20109;-88
2022/04/15 10:55:53;;;;;;;12.07;6.55;;;11.10;99.90;;;;;;5107271;28;20060;-85
2022/04/15 10:58:20;;;;;;;9.27;6.20;;;11.00;99.90;;;;;;5130863;27;20042;-83
2022/04/15 11:01:18;;;;;;;9.57;6.18;;;11.20;99.90;;;;;;5119055;28;20036;-84
2022/04/15 11:03:53;;;;;;;9.75;6.32;;;11.40;99.90;;;;;;5098866;28;20048;-88
2022/04/15 11:06:26;;;;;;;10.88;6.40;;;11.30;99.90;;;;;;5113925;27;20470;-87
2022/04/15 11:08:52;;;;;;;10.60;5.75;;;11.30;99.90;;;;;;5106438;28;20039;-89
2022/04/15 11:11:32;;;;;;;8.10;4.30;;;11.30;99.90;;;;;;5112154;28;20122;-87
2022/04/15 11:14:00;;;;;;;11.07;4.95;;;11.20;99.90;;;;;;5096542;28;20120;-86
2022/04/15 11:16:50;;;;;;;9.95;5.88;;;10.90;99.90;;;;;;5119641;28;20043;-78
2022/04/15 11:19:23;;;;;;;;;;;11.20;99.90;;;;;;5121581;28;20061;-86
2022/04/15 11:21:53;;;;;;;11.70;7.47;;;11.30;99.90;;;;;;5095861;28;19927;-85
2022/04/15 11:24:36;;;;;;;9.68;7.78;;;11.30;99.90;;;;;;5103000;28;20040;-84
2022/04/15 11:27:03;;;;;;;7.60;4.60;;;11.20;99.90;;;;;;5102174;27;20139;-88
2022/04/15 11:29:34;;;;;;;8.77;5.32;;;11.30;99.90;;;;;;5131625;27;20405;-84
2022/04/15 11:32:03;;;;;;;9.70;5.57;;;11.30;99.90;;;;;;5105103;28;20074;-80
2022/04/15 11:34:29;;;;;;;11.30;5.63;;;11.20;99.90;;;;;;5105647;28;20036;-87
2022/04/15 11:37:00;;;;;;;12.18;6.32;;;11.30;99.90;;;;;;5118207;27;20034;-87
2022/04/15 11:39:25;;;;;;;6.60;5.28;;;11.10;99.90;;;;;;5128950;28;20053;-85
2022/04/15 11:41:59;;;;;;;9.23;5.15;;;11.20;99.90;;;;;;5097828;28;20070;-88
2022/04/15 11:44:32;;;;;;;10.25;7.15;;;11.10;99.90;;;;;;5098759;28;20493;-90
2022/04/15 11:47:18;;;;;;;9.23;5.60;;;11.00;99.90;;;;;;5111220;28;20044;-88
2022/04/15 11:49:45;;;;;;;30.10;7.13;;;11.00;99.90;;;;;;5076615;28;20043;-88
2022/04/15 11:52:26;;;;;;;13.77;6.50;;;10.80;99.90;;;;;;5102269;28;20070;-88
2022/04/15 11:54:53;;;;;;;8.90;5.45;;;10.90;99.90;;;;;;5119554;28;20035;-87
2022/04/15 11:57:19;;;;;;;7.60;5.03;;;10.70;99.90;;;;;;5101424;28;20036;-88
2022/04/15 11:59:46;;;;;;;7.95;6.10;;;10.90;99.90;;;;;;5107673;28;20105;-87
2022/04/15 12:02:23;;;;;;;11.30;5.05;;;10.80;99.90;;;;;;5103516;27;20502;-92
2022/04/15 12:04:59;;;;;;;9.93;5.82;;;10.90;99.90;;;;;;5110640;28;20516;-92
2022/04/15 12:07:26;;;;;;;8.20;4.93;;;10.80;99.90;;;;;;5105961;28;20047;-90
2022/04/15 12:09:52;;;;;;;7.82;5.38;;;10.70;99.90;;;;;;5100559;28;20035;-89
2022/04/15 12:12:21;;;;;;;8.73;4.95;;;10.70;99.90;;;;;;5092195;28;20085;-88
2022/04/15 12:14:53;;;;;;;7.68;5.28;;;10.90;99.90;;;;;;5111981;28;20097;-89
2022/04/15 12:17:20;;;;;;;5.82;5.03;;;11.00;99.90;;;;;;5113955;28;20100;-90
2022/04/15 12:19:48;;;;;;;8.38;5.38;;;11.00;99.90;;;;;;5101420;28;20398;-89
2022/04/15 12:22:14;;;;;;;11.88;6.47;;;10.70;99.90;;;;;;5112910;28;20436;-89
2022/04/15 12:24:39;;;;;;;10.13;7.63;;;10.60;99.90;;;;;;5108620;28;20040;-80
2022/04/15 12:27:05;;;;;;;10.73;6.68;;;10.70;99.90;;;;;;5120117;27;20055;-89
2022/04/15 12:29:51;;;;;;;11.27;7.03;;;10.50;99.90;;;;;;5092083;28;20077;-90
2022/04/15 12:32:34;;;;;;;10.95;6.18;;;10.60;99.90;;;;;;5115419;27;20447;-88
2022/04/15 12:35:00;;;;;;;11.10;8.68;;;10.50;99.90;;;;;;5094358;28;20136;-86
2022/04/15 12:37:33;;;;;;;9.50;6.93;;;10.50;99.90;;;;;;5111045;28;20112;-90
2022/04/15 12:40:00;;;;;;;10.43;7.05;;;10.70;99.90;;;;;;5119581;27;20059;-90
2022/04/15 12:42:30;;;;;;;10.50;6.28;;;10.50;99.90;;;;;;5111086;28;20056;-90
2022/04/15 12:44:56;;;;;;;14.43;7.53;;;10.40;99.90;;;;;;5109526;28;20506;-91
2022/04/15 12:47:26;;;;;;;12.70;6.55;;;10.40;99.90;;;;;;5114056;28;20047;-89
2022/04/15 12:49:52;;;;;;;11.52;6.47;;;10.50;99.90;;;;;;5123626;28;20176;-89
2022/04/15 12:52:19;;;;;;;10.80;7.45;;;10.40;99.90;;;;;;5132044;27;20039;-85
2022/04/15 12:54:56;;;;;;;11.43;6.43;;;10.60;99.90;;;;;;5134240;27;20412;-88